sensor_id;sensor_type;location;lat;lon;timestamp;P1;durP1;ratioP1;P2;durP2;ratioP2
52494;SDS011;38405;53.212;5.660;2022-07-29T00:00:24;4.05;;;1.58;;
52494;SDS011;38405;53.212;5.660;2022-07-29T00:02:50;6.68;;;1.88;;
52494;SDS011;38405;53.212;5.660;2022-07-29T00:05:15;3.15;;;1.85;;
52494;SDS011;38405;53.212;5.660;2022-07-29T00:07:41;4.95;;;1.50;;
52494;SDS011;38405;53.212;5.660;2022-07-29T00:10:07;5.15;;;1.92;;
52494;SDS011;38405;53.212;5.660;2022-07-29T00:12:33;3.08;;;1.50;;
52494;SDS011;38405;53.212;5.660;2022-07-29T00:14:59;1.45;;;1.27;;
52494;SDS011;38405;53.212;5.660;2022-07-29T00:17:25;4.35;;;1.50;;
52494;SDS011;38405;53.212;5.660;2022-07-29T00:19:51;4.90;;;1.80;;
52494;SDS011;38405;53.212;5.660;2022-07-29T00:22:16;3.53;;;1.80;;
52494;SDS011;38405;53.212;5.660;2022-07-29T00:24:43;2.85;;;1.50;;
52494;SDS011;38405;53.212;5.660;2022-07-29T00:27:08;3.95;;;1.70;;
52494;SDS011;38405;53.212;5.660;2022-07-29T00:29:34;2.22;;;1.55;;
52494;SDS011;38405;53.212;5.660;2022-07-29T00:31:59;3.47;;;1.75;;
52494;SDS011;38405;53.212;5.660;2022-07-29T00:34:25;4.25;;;2.08;;
52494;SDS011;38405;53.212;5.660;2022-07-29T00:37:09;3.03;;;1.65;;
52494;SDS011;38405;53.212;5.660;2022-07-29T00:39:35;4.00;;;1.73;;
52494;SDS011;38405;53.212;5.660;2022-07-29T00:42:02;6.05;;;1.73;;
52494;SDS011;38405;53.212;5.660;2022-07-29T00:44:29;2.30;;;1.27;;
52494;SDS011;38405;53.212;5.660;2022-07-29T00:46:55;3.30;;;1.60;;
52494;SDS011;38405;53.212;5.660;2022-07-29T00:49:20;4.63;;;1.80;;
52494;SDS011;38405;53.212;5.660;2022-07-29T00:51:46;3.97;;;1.58;;
52494;SDS011;38405;53.212;5.660;2022-07-29T00:54:14;4.07;;;1.80;;
52494;SDS011;38405;53.212;5.660;2022-07-29T00:56:40;2.50;;;1.85;;
52494;SDS011;38405;53.212;5.660;2022-07-29T00:59:05;2.65;;;1.50;;
52494;SDS011;38405;53.212;5.660;2022-07-29T01:01:31;7.40;;;1.85;;
52494;SDS011;38405;53.212;5.660;2022-07-29T01:03:56;4.05;;;1.67;;
52494;SDS011;38405;53.212;5.660;2022-07-29T01:06:22;4.13;;;1.67;;
52494;SDS011;38405;53.212;5.660;2022-07-29T01:11:15;3.80;;;1.70;;
52494;SDS011;38405;53.212;5.660;2022-07-29T01:13:42;4.53;;;1.80;;
52494;SDS011;38405;53.212;5.660;2022-07-29T01:16:21;2.75;;;1.60;;
52494;SDS011;38405;53.212;5.660;2022-07-29T01:18:56;2.92;;;1.83;;
52494;SDS011;38405;53.212;5.660;2022-07-29T01:21:40;4.50;;;1.75;;
52494;SDS011;38405;53.212;5.660;2022-07-29T01:26:59;2.47;;;1.75;;
52494;SDS011;38405;53.212;5.660;2022-07-29T01:29:41;3.78;;;1.60;;
52494;SDS011;38405;53.212;5.660;2022-07-29T01:32:12;4.60;;;1.90;;
52494;SDS011;38405;53.212;5.660;2022-07-29T01:34:42;6.43;;;1.90;;
52494;SDS011;38405;53.212;5.660;2022-07-29T01:37:19;5.07;;;1.63;;
52494;SDS011;38405;53.212;5.660;2022-07-29T01:39:49;4.03;;;1.70;;
52494;SDS011;38405;53.212;5.660;2022-07-29T01:47:32;3.15;;;2.00;;
52494;SDS011;38405;53.212;5.660;2022-07-29T01:50:05;6.70;;;1.73;;
52494;SDS011;38405;53.212;5.660;2022-07-29T01:52:43;5.80;;;1.90;;
52494;SDS011;38405;53.212;5.660;2022-07-29T01:55:20;3.55;;;1.60;;
52494;SDS011;38405;53.212;5.660;2022-07-29T01:57:50;6.65;;;1.70;;
52494;SDS011;38405;53.212;5.660;2022-07-29T02:00:16;3.20;;;1.80;;
52494;SDS011;38405;53.212;5.660;2022-07-29T02:02:43;7.18;;;1.95;;
52494;SDS011;38405;53.212;5.660;2022-07-29T02:05:12;4.90;;;2.00;;
52494;SDS011;38405;53.212;5.660;2022-07-29T02:07:41;3.10;;;1.48;;
52494;SDS011;38405;53.212;5.660;2022-07-29T02:10:08;2.70;;;1.70;;
52494;SDS011;38405;53.212;5.660;2022-07-29T02:12:35;9.82;;;1.88;;
52494;SDS011;38405;53.212;5.660;2022-07-29T02:15:03;2.95;;;1.77;;
52494;SDS011;38405;53.212;5.660;2022-07-29T02:17:35;4.07;;;1.95;;
52494;SDS011;38405;53.212;5.660;2022-07-29T02:20:15;1.92;;;1.60;;
52494;SDS011;38405;53.212;5.660;2022-07-29T02:22:41;6.28;;;1.98;;
52494;SDS011;38405;53.212;5.660;2022-07-29T02:25:09;5.00;;;2.03;;
52494;SDS011;38405;53.212;5.660;2022-07-29T02:27:35;8.93;;;2.00;;
52494;SDS011;38405;53.212;5.660;2022-07-29T02:30:05;6.53;;;2.20;;
52494;SDS011;38405;53.212;5.660;2022-07-29T02:32:32;4.85;;;2.03;;
52494;SDS011;38405;53.212;5.660;2022-07-29T02:35:00;4.40;;;2.33;;
52494;SDS011;38405;53.212;5.660;2022-07-29T02:37:27;9.25;;;2.63;;
52494;SDS011;38405;53.212;5.660;2022-07-29T02:39:55;3.00;;;2.10;;
52494;SDS011;38405;53.212;5.660;2022-07-29T02:42:22;4.22;;;2.40;;
52494;SDS011;38405;53.212;5.660;2022-07-29T02:44:51;3.95;;;2.00;;
52494;SDS011;38405;53.212;5.660;2022-07-29T02:47:22;5.45;;;2.28;;
52494;SDS011;38405;53.212;5.660;2022-07-29T02:50:22;4.20;;;2.60;;
52494;SDS011;38405;53.212;5.660;2022-07-29T02:53:01;5.32;;;2.40;;
52494;SDS011;38405;53.212;5.660;2022-07-29T02:55:45;6.50;;;2.25;;
52494;SDS011;38405;53.212;5.660;2022-07-29T03:00:59;4.55;;;2.20;;
52494;SDS011;38405;53.212;5.660;2022-07-29T03:03:29;4.18;;;2.05;;
52494;SDS011;38405;53.212;5.660;2022-07-29T03:05:59;4.25;;;2.25;;
52494;SDS011;38405;53.212;5.660;2022-07-29T03:08:27;3.97;;;2.53;;
52494;SDS011;38405;53.212;5.660;2022-07-29T03:10:53;3.72;;;2.30;;
52494;SDS011;38405;53.212;5.660;2022-07-29T03:13:20;4.45;;;2.28;;
52494;SDS011;38405;53.212;5.660;2022-07-29T03:15:46;4.05;;;2.42;;
52494;SDS011;38405;53.212;5.660;2022-07-29T03:18:12;6.35;;;2.40;;
52494;SDS011;38405;53.212;5.660;2022-07-29T03:20:39;6.03;;;2.30;;
52494;SDS011;38405;53.212;5.660;2022-07-29T03:23:05;3.05;;;2.03;;
52494;SDS011;38405;53.212;5.660;2022-07-29T03:25:32;4.65;;;2.10;;
52494;SDS011;38405;53.212;5.660;2022-07-29T03:27:58;2.72;;;1.95;;
52494;SDS011;38405;53.212;5.660;2022-07-29T03:30:24;5.95;;;2.00;;
52494;SDS011;38405;53.212;5.660;2022-07-29T03:32:50;5.03;;;2.15;;
52494;SDS011;38405;53.212;5.660;2022-07-29T03:35:20;5.80;;;2.30;;
52494;SDS011;38405;53.212;5.660;2022-07-29T03:37:46;6.95;;;2.00;;
52494;SDS011;38405;53.212;5.660;2022-07-29T03:40:13;3.97;;;2.10;;
52494;SDS011;38405;53.212;5.660;2022-07-29T03:42:43;6.32;;;2.28;;
52494;SDS011;38405;53.212;5.660;2022-07-29T03:45:11;17.58;;;2.95;;
52494;SDS011;38405;53.212;5.660;2022-07-29T03:50:13;5.00;;;2.17;;
52494;SDS011;38405;53.212;5.660;2022-07-29T03:52:40;3.28;;;2.15;;
52494;SDS011;38405;53.212;5.660;2022-07-29T03:55:06;3.90;;;1.80;;
52494;SDS011;38405;53.212;5.660;2022-07-29T03:57:34;5.38;;;2.10;;
52494;SDS011;38405;53.212;5.660;2022-07-29T04:00:01;6.00;;;2.20;;
52494;SDS011;38405;53.212;5.660;2022-07-29T04:02:28;5.53;;;2.20;;
52494;SDS011;38405;53.212;5.660;2022-07-29T04:04:54;4.60;;;1.90;;
52494;SDS011;38405;53.212;5.660;2022-07-29T04:07:20;9.15;;;2.58;;
52494;SDS011;38405;53.212;5.660;2022-07-29T04:09:45;3.05;;;2.17;;
52494;SDS011;38405;53.212;5.660;2022-07-29T04:12:11;5.65;;;1.98;;
52494;SDS011;38405;53.212;5.660;2022-07-29T04:14:36;8.75;;;2.22;;
52494;SDS011;38405;53.212;5.660;2022-07-29T04:17:03;4.15;;;2.25;;
52494;SDS011;38405;53.212;5.660;2022-07-29T04:19:29;6.90;;;2.40;;
52494;SDS011;38405;53.212;5.660;2022-07-29T04:21:56;3.90;;;2.35;;
52494;SDS011;38405;53.212;5.660;2022-07-29T04:24:23;3.72;;;2.10;;
52494;SDS011;38405;53.212;5.660;2022-07-29T04:26:48;5.28;;;2.30;;
52494;SDS011;38405;53.212;5.660;2022-07-29T04:29:14;4.80;;;1.88;;
52494;SDS011;38405;53.212;5.660;2022-07-29T04:31:40;3.95;;;2.03;;
52494;SDS011;38405;53.212;5.660;2022-07-29T04:34:07;8.00;;;2.40;;
52494;SDS011;38405;53.212;5.660;2022-07-29T04:36:34;3.25;;;2.20;;
52494;SDS011;38405;53.212;5.660;2022-07-29T04:38:59;3.40;;;1.73;;
52494;SDS011;38405;53.212;5.660;2022-07-29T04:41:26;5.18;;;1.85;;
52494;SDS011;38405;53.212;5.660;2022-07-29T04:43:55;6.22;;;1.90;;
52494;SDS011;38405;53.212;5.660;2022-07-29T04:46:21;3.78;;;1.90;;
52494;SDS011;38405;53.212;5.660;2022-07-29T04:48:47;4.88;;;1.70;;
52494;SDS011;38405;53.212;5.660;2022-07-29T04:51:16;2.10;;;1.50;;
52494;SDS011;38405;53.212;5.660;2022-07-29T04:53:42;3.92;;;1.70;;
52494;SDS011;38405;53.212;5.660;2022-07-29T04:56:07;4.50;;;2.05;;
52494;SDS011;38405;53.212;5.660;2022-07-29T04:58:36;6.00;;;2.17;;
52494;SDS011;38405;53.212;5.660;2022-07-29T05:01:02;4.93;;;2.00;;
52494;SDS011;38405;53.212;5.660;2022-07-29T05:03:28;5.97;;;1.90;;
52494;SDS011;38405;53.212;5.660;2022-07-29T05:05:53;5.90;;;1.90;;
52494;SDS011;38405;53.212;5.660;2022-07-29T05:08:19;3.70;;;1.58;;
52494;SDS011;38405;53.212;5.660;2022-07-29T05:10:45;3.55;;;1.65;;
52494;SDS011;38405;53.212;5.660;2022-07-29T05:13:11;5.20;;;1.52;;
52494;SDS011;38405;53.212;5.660;2022-07-29T05:15:36;4.65;;;1.60;;
52494;SDS011;38405;53.212;5.660;2022-07-29T05:18:03;4.13;;;1.70;;
52494;SDS011;38405;53.212;5.660;2022-07-29T05:20:29;6.80;;;1.80;;
52494;SDS011;38405;53.212;5.660;2022-07-29T05:22:56;5.53;;;1.50;;
52494;SDS011;38405;53.212;5.660;2022-07-29T05:25:23;4.60;;;1.90;;
52494;SDS011;38405;53.212;5.660;2022-07-29T05:27:49;5.00;;;1.73;;
52494;SDS011;38405;53.212;5.660;2022-07-29T05:30:15;3.78;;;1.77;;
52494;SDS011;38405;53.212;5.660;2022-07-29T05:32:41;8.45;;;1.77;;
52494;SDS011;38405;53.212;5.660;2022-07-29T05:35:06;5.68;;;1.75;;
52494;SDS011;38405;53.212;5.660;2022-07-29T05:37:32;6.10;;;1.85;;
52494;SDS011;38405;53.212;5.660;2022-07-29T05:39:58;6.00;;;2.10;;
52494;SDS011;38405;53.212;5.660;2022-07-29T05:42:24;7.18;;;1.80;;
52494;SDS011;38405;53.212;5.660;2022-07-29T05:44:50;6.63;;;2.15;;
52494;SDS011;38405;53.212;5.660;2022-07-29T05:47:16;6.18;;;2.20;;
52494;SDS011;38405;53.212;5.660;2022-07-29T05:49:42;4.88;;;1.77;;
52494;SDS011;38405;53.212;5.660;2022-07-29T05:52:08;3.45;;;1.58;;
52494;SDS011;38405;53.212;5.660;2022-07-29T05:54:34;4.07;;;1.70;;
52494;SDS011;38405;53.212;5.660;2022-07-29T05:57:00;11.05;;;2.17;;
52494;SDS011;38405;53.212;5.660;2022-07-29T05:59:26;7.35;;;1.52;;
52494;SDS011;38405;53.212;5.660;2022-07-29T06:01:52;5.40;;;1.80;;
52494;SDS011;38405;53.212;5.660;2022-07-29T06:04:17;6.13;;;1.63;;
52494;SDS011;38405;53.212;5.660;2022-07-29T06:06:43;7.40;;;1.88;;
52494;SDS011;38405;53.212;5.660;2022-07-29T06:09:08;3.60;;;1.83;;
52494;SDS011;38405;53.212;5.660;2022-07-29T06:11:34;6.03;;;1.98;;
52494;SDS011;38405;53.212;5.660;2022-07-29T06:14:00;4.00;;;1.55;;
52494;SDS011;38405;53.212;5.660;2022-07-29T06:16:27;7.60;;;1.80;;
52494;SDS011;38405;53.212;5.660;2022-07-29T06:18:53;6.65;;;1.45;;
52494;SDS011;38405;53.212;5.660;2022-07-29T06:21:19;6.38;;;1.88;;
52494;SDS011;38405;53.212;5.660;2022-07-29T06:23:44;3.10;;;1.40;;
52494;SDS011;38405;53.212;5.660;2022-07-29T06:26:10;2.92;;;1.35;;
52494;SDS011;38405;53.212;5.660;2022-07-29T06:28:36;6.47;;;1.88;;
52494;SDS011;38405;53.212;5.660;2022-07-29T06:31:01;4.72;;;1.60;;
52494;SDS011;38405;53.212;5.660;2022-07-29T06:33:27;5.65;;;1.55;;
52494;SDS011;38405;53.212;5.660;2022-07-29T06:35:52;8.57;;;1.77;;
52494;SDS011;38405;53.212;5.660;2022-07-29T06:38:18;4.75;;;1.73;;
52494;SDS011;38405;53.212;5.660;2022-07-29T06:40:44;6.13;;;1.70;;
52494;SDS011;38405;53.212;5.660;2022-07-29T06:43:25;5.03;;;1.67;;
52494;SDS011;38405;53.212;5.660;2022-07-29T06:45:52;3.58;;;1.55;;
52494;SDS011;38405;53.212;5.660;2022-07-29T06:48:18;3.47;;;1.55;;
52494;SDS011;38405;53.212;5.660;2022-07-29T06:50:44;3.10;;;1.35;;
52494;SDS011;38405;53.212;5.660;2022-07-29T06:53:09;6.90;;;1.73;;
52494;SDS011;38405;53.212;5.660;2022-07-29T06:55:35;4.47;;;1.30;;
52494;SDS011;38405;53.212;5.660;2022-07-29T06:58:01;3.15;;;1.42;;
52494;SDS011;38405;53.212;5.660;2022-07-29T07:00:27;4.13;;;1.38;;
52494;SDS011;38405;53.212;5.660;2022-07-29T07:02:53;4.28;;;1.58;;
52494;SDS011;38405;53.212;5.660;2022-07-29T07:05:18;6.68;;;1.70;;
52494;SDS011;38405;53.212;5.660;2022-07-29T07:07:44;4.53;;;1.50;;
52494;SDS011;38405;53.212;5.660;2022-07-29T07:10:09;4.32;;;1.60;;
52494;SDS011;38405;53.212;5.660;2022-07-29T07:12:35;2.65;;;1.50;;
52494;SDS011;38405;53.212;5.660;2022-07-29T07:15:01;5.97;;;1.60;;
52494;SDS011;38405;53.212;5.660;2022-07-29T07:17:26;4.47;;;1.30;;
52494;SDS011;38405;53.212;5.660;2022-07-29T07:19:52;5.88;;;1.65;;
52494;SDS011;38405;53.212;5.660;2022-07-29T07:22:18;4.03;;;1.58;;
52494;SDS011;38405;53.212;5.660;2022-07-29T07:24:43;3.95;;;1.38;;
52494;SDS011;38405;53.212;5.660;2022-07-29T07:27:09;5.43;;;1.70;;
52494;SDS011;38405;53.212;5.660;2022-07-29T07:29:34;2.97;;;1.65;;
52494;SDS011;38405;53.212;5.660;2022-07-29T07:32:00;4.70;;;1.38;;
52494;SDS011;38405;53.212;5.660;2022-07-29T07:34:26;5.32;;;1.42;;
52494;SDS011;38405;53.212;5.660;2022-07-29T07:36:52;6.05;;;1.52;;
52494;SDS011;38405;53.212;5.660;2022-07-29T07:39:18;3.55;;;1.50;;
52494;SDS011;38405;53.212;5.660;2022-07-29T07:41:43;4.88;;;1.33;;
52494;SDS011;38405;53.212;5.660;2022-07-29T07:44:09;4.35;;;1.60;;
52494;SDS011;38405;53.212;5.660;2022-07-29T07:46:34;3.55;;;1.48;;
52494;SDS011;38405;53.212;5.660;2022-07-29T07:49:00;4.15;;;1.55;;
52494;SDS011;38405;53.212;5.660;2022-07-29T07:51:25;4.97;;;1.70;;
52494;SDS011;38405;53.212;5.660;2022-07-29T07:53:51;6.72;;;1.73;;
52494;SDS011;38405;53.212;5.660;2022-07-29T07:56:17;4.70;;;1.83;;
52494;SDS011;38405;53.212;5.660;2022-07-29T07:58:43;4.03;;;2.00;;
52494;SDS011;38405;53.212;5.660;2022-07-29T08:01:08;3.03;;;1.75;;
52494;SDS011;38405;53.212;5.660;2022-07-29T08:03:34;3.42;;;1.60;;
52494;SDS011;38405;53.212;5.660;2022-07-29T08:06:01;3.67;;;1.50;;
52494;SDS011;38405;53.212;5.660;2022-07-29T08:08:27;2.75;;;1.67;;
52494;SDS011;38405;53.212;5.660;2022-07-29T08:10:53;4.85;;;1.70;;
52494;SDS011;38405;53.212;5.660;2022-07-29T08:13:20;2.88;;;1.42;;
52494;SDS011;38405;53.212;5.660;2022-07-29T08:15:48;6.18;;;1.60;;
52494;SDS011;38405;53.212;5.660;2022-07-29T08:18:22;4.25;;;1.75;;
52494;SDS011;38405;53.212;5.660;2022-07-29T08:20:56;6.28;;;1.70;;
52494;SDS011;38405;53.212;5.660;2022-07-29T08:23:23;5.13;;;1.48;;
52494;SDS011;38405;53.212;5.660;2022-07-29T08:25:49;4.10;;;1.73;;
52494;SDS011;38405;53.212;5.660;2022-07-29T08:28:15;8.73;;;1.95;;
52494;SDS011;38405;53.212;5.660;2022-07-29T08:30:40;6.95;;;1.75;;
52494;SDS011;38405;53.212;5.660;2022-07-29T08:33:06;5.57;;;1.90;;
52494;SDS011;38405;53.212;5.660;2022-07-29T08:35:32;5.40;;;1.45;;
52494;SDS011;38405;53.212;5.660;2022-07-29T08:37:57;5.45;;;1.80;;
52494;SDS011;38405;53.212;5.660;2022-07-29T08:40:23;2.75;;;1.60;;
52494;SDS011;38405;53.212;5.660;2022-07-29T08:42:49;8.02;;;1.80;;
52494;SDS011;38405;53.212;5.660;2022-07-29T08:45:15;2.47;;;1.50;;
52494;SDS011;38405;53.212;5.660;2022-07-29T08:47:41;4.18;;;1.50;;
52494;SDS011;38405;53.212;5.660;2022-07-29T08:50:11;3.38;;;1.60;;
52494;SDS011;38405;53.212;5.660;2022-07-29T08:52:38;4.55;;;1.90;;
52494;SDS011;38405;53.212;5.660;2022-07-29T08:55:05;3.65;;;1.65;;
52494;SDS011;38405;53.212;5.660;2022-07-29T08:57:32;4.60;;;1.35;;
52494;SDS011;38405;53.212;5.660;2022-07-29T08:59:59;5.20;;;2.13;;
52494;SDS011;38405;53.212;5.660;2022-07-29T09:02:27;6.00;;;1.60;;
52494;SDS011;38405;53.212;5.660;2022-07-29T09:04:57;4.80;;;1.48;;
52494;SDS011;38405;53.212;5.660;2022-07-29T09:07:25;7.45;;;1.70;;
52494;SDS011;38405;53.212;5.660;2022-07-29T09:09:50;7.32;;;2.03;;
52494;SDS011;38405;53.212;5.660;2022-07-29T09:12:16;5.65;;;2.00;;
52494;SDS011;38405;53.212;5.660;2022-07-29T09:14:42;4.63;;;1.80;;
52494;SDS011;38405;53.212;5.660;2022-07-29T09:17:07;2.88;;;1.52;;
52494;SDS011;38405;53.212;5.660;2022-07-29T09:19:34;4.57;;;1.90;;
52494;SDS011;38405;53.212;5.660;2022-07-29T09:22:02;5.25;;;1.80;;
52494;SDS011;38405;53.212;5.660;2022-07-29T09:27:06;2.80;;;1.60;;
52494;SDS011;38405;53.212;5.660;2022-07-29T09:29:42;4.43;;;1.55;;
52494;SDS011;38405;53.212;5.660;2022-07-29T09:32:08;8.20;;;2.30;;
52494;SDS011;38405;53.212;5.660;2022-07-29T09:34:35;5.90;;;2.03;;
52494;SDS011;38405;53.212;5.660;2022-07-29T09:37:01;5.90;;;1.80;;
52494;SDS011;38405;53.212;5.660;2022-07-29T09:41:54;3.60;;;1.88;;
52494;SDS011;38405;53.212;5.660;2022-07-29T09:44:22;10.38;;;1.88;;
52494;SDS011;38405;53.212;5.660;2022-07-29T09:47:21;5.20;;;1.90;;
52494;SDS011;38405;53.212;5.660;2022-07-29T09:49:51;5.72;;;1.85;;
52494;SDS011;38405;53.212;5.660;2022-07-29T09:52:25;13.95;;;2.42;;
52494;SDS011;38405;53.212;5.660;2022-07-29T09:54:51;6.22;;;1.60;;
52494;SDS011;38405;53.212;5.660;2022-07-29T09:57:37;8.32;;;1.90;;
52494;SDS011;38405;53.212;5.660;2022-07-29T10:02:41;7.57;;;1.85;;
52494;SDS011;38405;53.212;5.660;2022-07-29T10:05:21;4.40;;;1.83;;
52494;SDS011;38405;53.212;5.660;2022-07-29T10:07:48;13.23;;;1.98;;
52494;SDS011;38405;53.212;5.660;2022-07-29T10:10:19;4.55;;;1.88;;
52494;SDS011;38405;53.212;5.660;2022-07-29T10:12:56;5.50;;;2.10;;
52494;SDS011;38405;53.212;5.660;2022-07-29T10:15:24;5.50;;;1.70;;
52494;SDS011;38405;53.212;5.660;2022-07-29T10:17:52;3.15;;;1.50;;
52494;SDS011;38405;53.212;5.660;2022-07-29T10:20:19;6.60;;;2.30;;
52494;SDS011;38405;53.212;5.660;2022-07-29T10:22:49;2.58;;;1.60;;
52494;SDS011;38405;53.212;5.660;2022-07-29T10:25:16;4.90;;;2.08;;
52494;SDS011;38405;53.212;5.660;2022-07-29T10:27:43;3.92;;;1.98;;
52494;SDS011;38405;53.212;5.660;2022-07-29T10:30:10;5.80;;;1.98;;
52494;SDS011;38405;53.212;5.660;2022-07-29T10:38:44;4.10;;;1.95;;
52494;SDS011;38405;53.212;5.660;2022-07-29T10:44:00;8.88;;;2.42;;
52494;SDS011;38405;53.212;5.660;2022-07-29T10:46:41;13.03;;;2.97;;
52494;SDS011;38405;53.212;5.660;2022-07-29T10:49:20;4.72;;;1.80;;
52494;SDS011;38405;53.212;5.660;2022-07-29T10:54:16;6.20;;;3.00;;
52494;SDS011;38405;53.212;5.660;2022-07-29T10:56:43;7.38;;;2.20;;
52494;SDS011;38405;53.212;5.660;2022-07-29T11:01:44;11.65;;;2.47;;
52494;SDS011;38405;53.212;5.660;2022-07-29T11:04:11;5.13;;;2.47;;
52494;SDS011;38405;53.212;5.660;2022-07-29T11:09:30;4.97;;;2.45;;
52494;SDS011;38405;53.212;5.660;2022-07-29T11:11:56;3.88;;;2.30;;
52494;SDS011;38405;53.212;5.660;2022-07-29T11:17:23;8.82;;;2.72;;
52494;SDS011;38405;53.212;5.660;2022-07-29T11:19:48;11.75;;;2.88;;
52494;SDS011;38405;53.212;5.660;2022-07-29T11:22:32;4.72;;;2.42;;
52494;SDS011;38405;53.212;5.660;2022-07-29T11:25:15;3.85;;;2.13;;
52494;SDS011;38405;53.212;5.660;2022-07-29T11:27:42;7.53;;;2.72;;
52494;SDS011;38405;53.212;5.660;2022-07-29T11:30:09;9.23;;;2.88;;
52494;SDS011;38405;53.212;5.660;2022-07-29T11:32:40;4.30;;;2.20;;
52494;SDS011;38405;53.212;5.660;2022-07-29T11:35:17;6.07;;;2.63;;
52494;SDS011;38405;53.212;5.660;2022-07-29T11:46:16;6.30;;;2.60;;
52494;SDS011;38405;53.212;5.660;2022-07-29T11:49:21;4.50;;;2.22;;
52494;SDS011;38405;53.212;5.660;2022-07-29T11:51:54;10.20;;;2.75;;
52494;SDS011;38405;53.212;5.660;2022-07-29T11:54:24;5.90;;;2.50;;
52494;SDS011;38405;53.212;5.660;2022-07-29T11:56:51;6.95;;;2.60;;
52494;SDS011;38405;53.212;5.660;2022-07-29T11:59:17;6.32;;;2.35;;
52494;SDS011;38405;53.212;5.660;2022-07-29T12:01:51;6.72;;;2.65;;
52494;SDS011;38405;53.212;5.660;2022-07-29T12:04:21;4.30;;;2.35;;
52494;SDS011;38405;53.212;5.660;2022-07-29T12:06:54;6.80;;;2.40;;
52494;SDS011;38405;53.212;5.660;2022-07-29T12:09:21;8.38;;;2.70;;
52494;SDS011;38405;53.212;5.660;2022-07-29T12:11:57;7.28;;;2.70;;
52494;SDS011;38405;53.212;5.660;2022-07-29T12:14:24;4.78;;;2.50;;
52494;SDS011;38405;53.212;5.660;2022-07-29T12:16:50;6.25;;;2.42;;
52494;SDS011;38405;53.212;5.660;2022-07-29T12:19:16;8.25;;;2.72;;
52494;SDS011;38405;53.212;5.660;2022-07-29T12:24:14;8.35;;;2.78;;
52494;SDS011;38405;53.212;5.660;2022-07-29T12:26:54;5.10;;;3.00;;
52494;SDS011;38405;53.212;5.660;2022-07-29T12:29:21;7.65;;;3.53;;
52494;SDS011;38405;53.212;5.660;2022-07-29T12:31:50;7.10;;;2.88;;
52494;SDS011;38405;53.212;5.660;2022-07-29T12:34:19;5.20;;;2.77;;
52494;SDS011;38405;53.212;5.660;2022-07-29T12:36:47;4.95;;;2.85;;
52494;SDS011;38405;53.212;5.660;2022-07-29T12:39:14;6.55;;;3.00;;
52494;SDS011;38405;53.212;5.660;2022-07-29T12:41:40;9.07;;;2.88;;
52494;SDS011;38405;53.212;5.660;2022-07-29T12:44:06;5.28;;;2.20;;
52494;SDS011;38405;53.212;5.660;2022-07-29T12:46:32;3.97;;;2.58;;
52494;SDS011;38405;53.212;5.660;2022-07-29T12:48:58;5.53;;;2.25;;
52494;SDS011;38405;53.212;5.660;2022-07-29T12:54:09;6.00;;;2.38;;
52494;SDS011;38405;53.212;5.660;2022-07-29T12:56:38;6.30;;;2.72;;
52494;SDS011;38405;53.212;5.660;2022-07-29T12:59:14;5.60;;;2.45;;
52494;SDS011;38405;53.212;5.660;2022-07-29T13:01:45;5.50;;;2.47;;
52494;SDS011;38405;53.212;5.660;2022-07-29T13:04:23;7.43;;;2.30;;
52494;SDS011;38405;53.212;5.660;2022-07-29T13:07:02;8.93;;;2.63;;
52494;SDS011;38405;53.212;5.660;2022-07-29T13:09:37;7.00;;;2.30;;
52494;SDS011;38405;53.212;5.660;2022-07-29T13:12:08;11.63;;;2.67;;
52494;SDS011;38405;53.212;5.660;2022-07-29T13:14:44;6.55;;;2.55;;
52494;SDS011;38405;53.212;5.660;2022-07-29T13:22:09;5.38;;;2.20;;
52494;SDS011;38405;53.212;5.660;2022-07-29T13:27:20;9.13;;;2.28;;
52494;SDS011;38405;53.212;5.660;2022-07-29T13:29:51;6.57;;;2.38;;
52494;SDS011;38405;53.212;5.660;2022-07-29T13:32:17;7.35;;;2.60;;
52494;SDS011;38405;53.212;5.660;2022-07-29T13:34:46;4.13;;;2.63;;
52494;SDS011;38405;53.212;5.660;2022-07-29T13:37:12;7.80;;;2.67;;
52494;SDS011;38405;53.212;5.660;2022-07-29T13:39:37;9.55;;;2.85;;
52494;SDS011;38405;53.212;5.660;2022-07-29T13:42:03;8.13;;;2.80;;
52494;SDS011;38405;53.212;5.660;2022-07-29T13:44:29;6.20;;;2.45;;
52494;SDS011;38405;53.212;5.660;2022-07-29T13:46:55;6.28;;;2.95;;
52494;SDS011;38405;53.212;5.660;2022-07-29T13:49:21;9.27;;;3.38;;
52494;SDS011;38405;53.212;5.660;2022-07-29T13:51:48;6.00;;;2.40;;
52494;SDS011;38405;53.212;5.660;2022-07-29T13:54:14;8.18;;;2.90;;
52494;SDS011;38405;53.212;5.660;2022-07-29T13:56:40;6.82;;;2.80;;
52494;SDS011;38405;53.212;5.660;2022-07-29T13:59:06;4.57;;;2.80;;
52494;SDS011;38405;53.212;5.660;2022-07-29T14:01:32;6.65;;;2.83;;
52494;SDS011;38405;53.212;5.660;2022-07-29T14:04:06;9.70;;;2.65;;
52494;SDS011;38405;53.212;5.660;2022-07-29T14:06:33;11.15;;;2.90;;
52494;SDS011;38405;53.212;5.660;2022-07-29T14:08:58;5.30;;;2.65;;
52494;SDS011;38405;53.212;5.660;2022-07-29T14:11:24;7.43;;;2.90;;
52494;SDS011;38405;53.212;5.660;2022-07-29T14:13:50;7.07;;;2.80;;
52494;SDS011;38405;53.212;5.660;2022-07-29T14:16:15;4.10;;;2.33;;
52494;SDS011;38405;53.212;5.660;2022-07-29T14:18:41;6.20;;;2.75;;
52494;SDS011;38405;53.212;5.660;2022-07-29T14:21:07;8.40;;;2.90;;
52494;SDS011;38405;53.212;5.660;2022-07-29T14:23:33;10.43;;;2.80;;
52494;SDS011;38405;53.212;5.660;2022-07-29T14:25:59;4.63;;;2.47;;
52494;SDS011;38405;53.212;5.660;2022-07-29T14:28:24;11.63;;;2.67;;
52494;SDS011;38405;53.212;5.660;2022-07-29T14:30:50;7.28;;;3.22;;
52494;SDS011;38405;53.212;5.660;2022-07-29T14:33:15;9.65;;;2.92;;
52494;SDS011;38405;53.212;5.660;2022-07-29T14:35:41;7.78;;;3.00;;
52494;SDS011;38405;53.212;5.660;2022-07-29T14:38:06;9.45;;;3.00;;
52494;SDS011;38405;53.212;5.660;2022-07-29T14:40:32;18.88;;;3.03;;
52494;SDS011;38405;53.212;5.660;2022-07-29T14:42:58;7.75;;;2.53;;
52494;SDS011;38405;53.212;5.660;2022-07-29T14:45:24;5.78;;;2.85;;
52494;SDS011;38405;53.212;5.660;2022-07-29T14:47:49;6.38;;;2.40;;
52494;SDS011;38405;53.212;5.660;2022-07-29T14:50:15;8.02;;;2.60;;
52494;SDS011;38405;53.212;5.660;2022-07-29T14:52:41;5.30;;;2.35;;
52494;SDS011;38405;53.212;5.660;2022-07-29T14:55:07;5.15;;;2.28;;
52494;SDS011;38405;53.212;5.660;2022-07-29T14:57:33;6.88;;;2.50;;
52494;SDS011;38405;53.212;5.660;2022-07-29T14:59:59;8.02;;;3.30;;
52494;SDS011;38405;53.212;5.660;2022-07-29T15:02:24;9.45;;;2.88;;
52494;SDS011;38405;53.212;5.660;2022-07-29T15:04:50;9.95;;;2.92;;
52494;SDS011;38405;53.212;5.660;2022-07-29T15:07:16;8.65;;;2.72;;
52494;SDS011;38405;53.212;5.660;2022-07-29T15:09:42;5.20;;;2.78;;
52494;SDS011;38405;53.212;5.660;2022-07-29T15:12:10;11.52;;;4.80;;
52494;SDS011;38405;53.212;5.660;2022-07-29T15:14:35;12.02;;;3.35;;
52494;SDS011;38405;53.212;5.660;2022-07-29T15:17:01;9.18;;;3.47;;
52494;SDS011;38405;53.212;5.660;2022-07-29T15:19:27;7.95;;;3.15;;
52494;SDS011;38405;53.212;5.660;2022-07-29T15:21:52;8.60;;;2.80;;
52494;SDS011;38405;53.212;5.660;2022-07-29T15:24:18;18.52;;;4.47;;
52494;SDS011;38405;53.212;5.660;2022-07-29T15:26:45;4.20;;;2.30;;
52494;SDS011;38405;53.212;5.660;2022-07-29T15:29:10;6.13;;;2.60;;
52494;SDS011;38405;53.212;5.660;2022-07-29T15:31:36;6.43;;;2.78;;
52494;SDS011;38405;53.212;5.660;2022-07-29T15:34:03;5.57;;;2.30;;
52494;SDS011;38405;53.212;5.660;2022-07-29T15:36:28;5.70;;;2.67;;
52494;SDS011;38405;53.212;5.660;2022-07-29T15:38:54;6.78;;;3.15;;
52494;SDS011;38405;53.212;5.660;2022-07-29T15:41:21;10.05;;;2.80;;
52494;SDS011;38405;53.212;5.660;2022-07-29T15:43:48;11.05;;;2.90;;
52494;SDS011;38405;53.212;5.660;2022-07-29T15:46:14;6.65;;;2.58;;
52494;SDS011;38405;53.212;5.660;2022-07-29T15:49:00;11.07;;;3.10;;
52494;SDS011;38405;53.212;5.660;2022-07-29T15:51:26;9.02;;;2.83;;
52494;SDS011;38405;53.212;5.660;2022-07-29T15:53:52;11.15;;;2.70;;
52494;SDS011;38405;53.212;5.660;2022-07-29T15:56:17;9.13;;;2.70;;